createdAt,value
2018-12-26T00:00:19.907Z,1.70
2018-12-26T00:02:48.882Z,1.70
2018-12-26T00:05:17.905Z,1.70
2018-12-26T00:07:46.917Z,1.60
2018-12-26T00:10:15.875Z,1.60
2018-12-26T00:12:45.480Z,1.60
2018-12-26T00:15:14.509Z,1.60
2018-12-26T00:17:43.524Z,1.60
2018-12-26T00:20:12.463Z,1.50
2018-12-26T00:22:41.465Z,1.50
2018-12-26T00:25:10.518Z,1.50
2018-12-26T00:27:39.585Z,1.50
2018-12-26T00:30:08.541Z,1.40
2018-12-26T00:32:37.565Z,1.40
2018-12-26T00:35:06.581Z,1.30
2018-12-26T00:37:35.633Z,1.30
2018-12-26T00:40:05.065Z,1.20
2018-12-26T00:42:34.143Z,1.20
2018-12-26T00:45:03.220Z,1.20
2018-12-26T00:47:32.260Z,1.20
2018-12-26T00:50:01.279Z,1.20
2018-12-26T00:52:30.225Z,1.10
2018-12-26T00:54:59.211Z,1.10
2018-12-26T00:57:28.158Z,1.10
2018-12-26T00:59:57.035Z,1.00
2018-12-26T01:02:26.492Z,1.10
2018-12-26T01:04:55.565Z,1.00
2018-12-26T01:07:24.679Z,1.10
2018-12-26T01:09:53.645Z,1.10
2018-12-26T01:12:23.761Z,1.10
2018-12-26T01:14:52.670Z,1.10
2018-12-26T01:17:21.711Z,1.10
2018-12-26T01:19:50.730Z,1.10
2018-12-26T01:22:19.731Z,1.10
2018-12-26T01:24:48.754Z,1.10
2018-12-26T01:27:17.764Z,1.10
2018-12-26T01:29:46.762Z,1.10
2018-12-26T01:32:15.646Z,1.10
2018-12-26T01:34:44.662Z,1.10
2018-12-26T01:37:13.656Z,1.10
2018-12-26T01:39:42.552Z,1.00
2018-12-26T01:42:11.689Z,1.00
2018-12-26T01:44:40.611Z,1.10
2018-12-26T01:47:09.542Z,1.10
2018-12-26T01:49:38.546Z,1.10
2018-12-26T01:52:07.478Z,1.10
2018-12-26T01:54:36.438Z,1.10
2018-12-26T01:57:05.364Z,1.10
2018-12-26T01:59:34.515Z,1.20
2018-12-26T02:02:03.641Z,1.20
2018-12-26T02:04:32.655Z,1.20
2018-12-26T02:07:01.660Z,1.20
2018-12-26T02:09:30.751Z,1.20
2018-12-26T02:11:59.814Z,1.20
2018-12-26T02:14:28.877Z,1.20
2018-12-26T02:16:57.873Z,1.10
2018-12-26T02:19:26.819Z,1.10
2018-12-26T02:21:55.833Z,1.10
2018-12-26T02:24:24.771Z,1.10
2018-12-26T02:26:53.806Z,1.10
2018-12-26T02:29:22.677Z,1.10
2018-12-26T02:31:51.632Z,1.10
2018-12-26T02:34:20.520Z,1.00
2018-12-26T02:36:49.463Z,1.00
2018-12-26T02:39:18.398Z,1.00
2018-12-26T02:41:47.416Z,1.00
2018-12-26T02:44:35.529Z,1.00
2018-12-26T02:47:04.729Z,1.00
2018-12-26T02:49:33.681Z,1.00
2018-12-26T02:52:02.721Z,1.00
2018-12-26T02:54:31.738Z,1.10
2018-12-26T02:57:00.742Z,1.20
2018-12-26T02:59:29.682Z,1.30
2018-12-26T03:01:58.647Z,1.40
2018-12-26T03:04:27.940Z,1.40
2018-12-26T03:06:57.073Z,1.50
2018-12-26T03:09:26.108Z,1.50
2018-12-26T03:11:55.183Z,1.60
2018-12-26T03:14:24.228Z,1.60
2018-12-26T03:16:53.322Z,1.60
2018-12-26T03:19:22.342Z,1.60
2018-12-26T03:21:51.398Z,1.70
2018-12-26T03:24:20.443Z,1.70
2018-12-26T03:26:56.085Z,1.80
2018-12-26T03:29:20.211Z,1.80
2018-12-26T03:31:49.144Z,1.80
2018-12-26T03:34:18.259Z,1.90
2018-12-26T03:36:47.268Z,1.90
2018-12-26T03:39:16.343Z,1.90
2018-12-26T03:41:45.360Z,1.90
2018-12-26T03:44:14.420Z,1.90
2018-12-26T03:46:43.632Z,2.00
2018-12-26T03:49:12.602Z,2.00
2018-12-26T03:51:41.635Z,2.10
2018-12-26T03:54:10.603Z,2.10
2018-12-26T03:56:39.629Z,2.10
2018-12-26T03:59:08.643Z,2.10
2018-12-26T04:01:37.565Z,2.10
2018-12-26T04:04:06.510Z,2.20
2018-12-26T04:06:35.529Z,2.20
2018-12-26T04:09:06.678Z,2.20
2018-12-26T04:11:35.664Z,2.20
2018-12-26T04:14:04.777Z,2.10
2018-12-26T04:16:33.711Z,2.20
2018-12-26T04:19:02.768Z,2.20
2018-12-26T04:21:31.799Z,2.20
2018-12-26T04:24:00.978Z,2.20
2018-12-26T04:26:30.297Z,2.20
2018-12-26T04:28:59.283Z,2.30
2018-12-26T04:31:28.278Z,2.20
2018-12-26T04:33:57.209Z,2.30
2018-12-26T04:36:26.236Z,2.40
2018-12-26T04:38:55.342Z,2.30
2018-12-26T04:41:24.459Z,2.40
2018-12-26T04:43:53.426Z,2.30
2018-12-26T04:46:22.427Z,2.40
2018-12-26T04:48:51.792Z,2.40
2018-12-26T04:51:20.729Z,2.40
2018-12-26T04:53:49.657Z,2.40
2018-12-26T04:56:18.691Z,2.40
2018-12-26T04:58:47.668Z,2.40
2018-12-26T05:01:16.651Z,2.40
2018-12-26T05:03:45.587Z,2.40
2018-12-26T05:06:14.705Z,2.40
2018-12-26T05:08:43.694Z,2.50
2018-12-26T05:11:12.679Z,2.50
2018-12-26T05:13:41.556Z,2.50
2018-12-26T05:16:10.601Z,2.50
2018-12-26T05:18:39.868Z,2.50
2018-12-26T05:21:08.953Z,2.50
2018-12-26T05:23:37.971Z,2.50
2018-12-26T05:26:06.976Z,2.50
2018-12-26T05:28:35.944Z,2.50
2018-12-26T05:31:05.006Z,2.60
2018-12-26T05:33:33.998Z,2.50
2018-12-26T05:36:03.061Z,2.60
2018-12-26T05:38:32.086Z,2.50
2018-12-26T05:41:01.217Z,2.50
2018-12-26T05:43:30.241Z,2.60
2018-12-26T05:45:59.202Z,2.50
2018-12-26T05:48:28.142Z,2.50
2018-12-26T05:50:57.232Z,2.50
2018-12-26T05:53:26.293Z,2.60
2018-12-26T05:55:55.230Z,2.60
2018-12-26T05:58:24.350Z,2.60
2018-12-26T06:00:53.427Z,2.60
2018-12-26T06:03:22.344Z,2.50
2018-12-26T06:05:51.380Z,2.60
2018-12-26T06:08:20.215Z,2.50
2018-12-26T06:10:49.172Z,2.50
2018-12-26T06:13:18.254Z,2.60
2018-12-26T06:15:47.179Z,2.50
2018-12-26T06:18:16.133Z,2.60
2018-12-26T06:20:45.712Z,2.60
2018-12-26T06:23:14.709Z,2.60
2018-12-26T06:25:46.562Z,2.70
2018-12-26T06:28:15.818Z,2.60
2018-12-26T06:30:45.107Z,2.70
2018-12-26T06:33:14.248Z,2.70
2018-12-26T06:35:43.280Z,2.60
2018-12-26T06:38:12.258Z,2.70
2018-12-26T06:40:41.257Z,2.60
2018-12-26T06:43:10.274Z,2.70
2018-12-26T06:45:39.339Z,2.70
2018-12-26T06:48:08.200Z,2.70
2018-12-26T06:50:37.120Z,2.80
2018-12-26T06:53:06.476Z,2.70
2018-12-26T06:55:35.402Z,2.70
2018-12-26T06:58:04.609Z,2.80
2018-12-26T07:00:33.611Z,2.70
2018-12-26T07:03:02.710Z,2.70
2018-12-26T07:05:32.087Z,2.70
2018-12-26T07:08:01.015Z,2.70
2018-12-26T07:10:30.062Z,2.70
2018-12-26T07:12:59.227Z,2.70
2018-12-26T07:15:28.309Z,2.70
2018-12-26T07:17:57.401Z,2.80
2018-12-26T07:20:26.360Z,2.80
2018-12-26T07:22:55.199Z,2.80
2018-12-26T07:25:24.327Z,2.80
2018-12-26T07:27:53.303Z,2.80
2018-12-26T07:30:22.216Z,2.80
2018-12-26T07:32:51.154Z,2.80
2018-12-26T07:35:22.976Z,2.90
2018-12-26T07:37:51.938Z,2.90
2018-12-26T07:40:20.878Z,2.90
2018-12-26T07:42:49.914Z,2.90
2018-12-26T07:45:20.116Z,2.90
2018-12-26T07:47:49.114Z,2.90
2018-12-26T07:50:18.160Z,2.90
2018-12-26T07:52:47.230Z,2.90
2018-12-26T07:55:16.387Z,2.90
2018-12-26T07:57:45.338Z,3.00
2018-12-26T08:00:14.420Z,3.00
2018-12-26T08:02:43.420Z,3.00
2018-12-26T08:05:12.436Z,3.00
2018-12-26T08:07:41.423Z,3.00
2018-12-26T08:10:10.400Z,3.00
2018-12-26T08:12:58.583Z,3.00
2018-12-26T08:15:27.575Z,3.00
2018-12-26T08:17:56.646Z,3.00
2018-12-26T08:20:25.809Z,3.10
2018-12-26T08:22:54.820Z,3.00
2018-12-26T08:25:23.853Z,3.00
2018-12-26T08:27:52.885Z,3.00
2018-12-26T08:30:21.874Z,3.00
2018-12-26T08:32:50.732Z,3.10
2018-12-26T08:35:19.790Z,3.10
2018-12-26T08:37:48.946Z,3.10
2018-12-26T08:40:18.038Z,3.10
2018-12-26T08:42:47.064Z,3.10
2018-12-26T08:45:16.150Z,3.10
2018-12-26T08:47:45.101Z,3.10
2018-12-26T08:50:14.106Z,3.10
2018-12-26T08:52:43.099Z,3.10
2018-12-26T08:55:12.130Z,3.10
2018-12-26T08:57:41.208Z,3.20
2018-12-26T09:00:10.148Z,3.10
2018-12-26T09:02:39.175Z,3.10
2018-12-26T09:05:08.035Z,3.10
2018-12-26T09:07:37.026Z,3.10
2018-12-26T09:10:06.707Z,3.10
2018-12-26T09:12:35.620Z,3.20
2018-12-26T09:15:05.075Z,3.20
2018-12-26T09:17:34.110Z,3.10
2018-12-26T09:20:02.960Z,3.10
2018-12-26T09:22:32.001Z,3.10
2018-12-26T09:25:01.016Z,3.10
2018-12-26T09:27:30.814Z,3.20
2018-12-26T09:29:59.876Z,3.20
2018-12-26T09:32:29.118Z,3.30
2018-12-26T09:34:58.170Z,3.30
2018-12-26T09:37:27.107Z,3.30
2018-12-26T09:39:56.094Z,3.30
2018-12-26T09:42:25.247Z,3.30
2018-12-26T09:44:54.787Z,3.40
2018-12-26T09:47:24.298Z,3.40
2018-12-26T09:49:53.278Z,3.40
2018-12-26T09:52:22.196Z,3.50
2018-12-26T09:54:51.138Z,3.60
2018-12-26T09:57:20.148Z,3.60
2018-12-26T09:59:49.229Z,3.70
2018-12-26T10:02:18.248Z,3.70
2018-12-26T10:04:47.274Z,3.70
2018-12-26T10:07:16.258Z,3.80
2018-12-26T10:09:45.306Z,3.90
2018-12-26T10:12:14.290Z,4.00
2018-12-26T10:14:43.294Z,3.90
2018-12-26T10:17:12.273Z,3.90
2018-12-26T10:19:41.486Z,4.00
2018-12-26T10:22:10.432Z,3.90
2018-12-26T10:24:39.467Z,3.90
2018-12-26T10:27:08.356Z,4.00
2018-12-26T10:29:37.398Z,4.10
2018-12-26T10:32:06.415Z,4.10
2018-12-26T10:34:35.326Z,4.20
2018-12-26T10:37:04.325Z,4.20
2018-12-26T10:39:33.310Z,4.30
2018-12-26T10:42:02.407Z,4.30
2018-12-26T10:44:31.581Z,4.40
2018-12-26T10:47:00.552Z,4.40
2018-12-26T10:49:29.559Z,4.40
2018-12-26T10:51:58.634Z,4.50
2018-12-26T10:54:27.717Z,4.50
2018-12-26T10:56:56.925Z,4.50
2018-12-26T10:59:25.980Z,4.50
2018-12-26T11:01:55.618Z,4.50
2018-12-26T11:04:24.606Z,4.50
2018-12-26T11:06:53.442Z,4.50
2018-12-26T11:09:22.405Z,4.60
2018-12-26T11:11:51.504Z,4.60
2018-12-26T11:14:23.485Z,4.70
2018-12-26T11:16:52.357Z,4.70
2018-12-26T11:19:21.397Z,4.70
2018-12-26T11:21:50.415Z,4.80
2018-12-26T11:24:19.371Z,4.90
2018-12-26T11:26:48.296Z,4.90
2018-12-26T11:29:18.724Z,5.10
2018-12-26T11:31:48.106Z,5.20
2018-12-26T11:34:17.228Z,5.20
2018-12-26T11:36:46.270Z,5.20
2018-12-26T11:39:15.234Z,5.20
2018-12-26T11:41:44.318Z,5.30
2018-12-26T11:44:13.315Z,5.30
2018-12-26T11:46:42.344Z,5.30
2018-12-26T11:49:11.201Z,5.50
2018-12-26T11:51:40.204Z,5.50
2018-12-26T11:54:09.157Z,5.50
2018-12-26T11:56:38.204Z,5.50
2018-12-26T11:59:07.187Z,5.60
2018-12-26T12:01:36.144Z,5.50
2018-12-26T12:04:05.071Z,5.50
2018-12-26T12:06:37.003Z,5.50
2018-12-26T12:09:07.327Z,5.50
2018-12-26T12:11:36.456Z,5.50
2018-12-26T12:14:08.177Z,5.50
2018-12-26T12:16:37.294Z,5.50
2018-12-26T12:19:06.254Z,5.50
2018-12-26T12:21:35.364Z,5.60
2018-12-26T12:24:04.655Z,5.60
2018-12-26T12:26:33.866Z,5.70
2018-12-26T12:29:02.974Z,5.70
2018-12-26T12:31:32.078Z,5.70
2018-12-26T12:34:01.122Z,5.70
2018-12-26T12:36:30.040Z,5.70
2018-12-26T12:38:59.058Z,5.70
2018-12-26T12:41:28.078Z,5.70
2018-12-26T12:43:57.248Z,5.70
2018-12-26T12:46:26.302Z,5.70
2018-12-26T12:48:55.321Z,5.80
2018-12-26T12:51:24.171Z,5.70
2018-12-26T12:53:53.240Z,5.70
2018-12-26T12:56:22.168Z,5.70
2018-12-26T12:58:51.113Z,5.60
2018-12-26T13:01:20.348Z,5.70
2018-12-26T13:03:49.256Z,5.70
2018-12-26T13:06:18.272Z,5.70
2018-12-26T13:08:47.390Z,5.80
2018-12-26T13:11:16.406Z,5.80
2018-12-26T13:13:45.401Z,5.80
2018-12-26T13:16:14.350Z,5.90
2018-12-26T13:18:43.348Z,5.90
2018-12-26T13:21:12.356Z,5.90
2018-12-26T13:23:41.304Z,5.90
2018-12-26T13:26:10.318Z,5.90
2018-12-26T13:28:39.419Z,5.80
2018-12-26T13:31:08.528Z,5.90
2018-12-26T13:33:37.562Z,5.90
2018-12-26T13:36:06.626Z,5.90
2018-12-26T13:38:36.360Z,5.90
2018-12-26T13:41:05.299Z,5.90
2018-12-26T13:43:34.663Z,5.80
2018-12-26T13:46:03.723Z,5.80
2018-12-26T13:48:32.633Z,5.70
2018-12-26T13:51:01.590Z,5.80
2018-12-26T13:53:30.591Z,5.70
2018-12-26T13:55:59.695Z,5.70
2018-12-26T13:58:28.626Z,5.70
2018-12-26T14:00:57.509Z,5.70
2018-12-26T14:03:26.555Z,5.80
2018-12-26T14:05:55.773Z,5.80
2018-12-26T14:08:31.501Z,5.80
2018-12-26T14:11:00.507Z,5.80
2018-12-26T14:13:48.627Z,5.80
2018-12-26T14:16:17.619Z,5.70
2018-12-26T14:18:46.767Z,5.70
2018-12-26T14:21:15.779Z,5.70
2018-12-26T14:23:44.780Z,5.70
2018-12-26T14:26:13.815Z,5.70
2018-12-26T14:28:43.188Z,5.70
2018-12-26T14:31:12.020Z,5.70
2018-12-26T14:33:40.993Z,5.60
2018-12-26T14:36:09.924Z,5.60
2018-12-26T14:38:38.850Z,5.60
2018-12-26T14:41:07.912Z,5.50
2018-12-26T14:43:36.980Z,5.50
2018-12-26T14:46:05.990Z,5.50
2018-12-26T14:48:35.118Z,5.50
2018-12-26T14:51:04.120Z,5.50
2018-12-26T14:53:33.112Z,5.50
2018-12-26T14:56:02.072Z,5.50
2018-12-26T14:58:30.994Z,5.50
2018-12-26T15:01:00.014Z,5.50
2018-12-26T15:03:29.012Z,5.50
2018-12-26T15:05:57.847Z,5.40
2018-12-26T15:08:26.749Z,5.40
2018-12-26T15:10:55.904Z,5.40
2018-12-26T15:13:24.904Z,5.40
2018-12-26T15:15:53.993Z,5.40
2018-12-26T15:18:22.927Z,5.40
2018-12-26T15:20:51.845Z,5.40
2018-12-26T15:23:20.834Z,5.40
2018-12-26T15:25:49.847Z,5.40
2018-12-26T15:28:18.836Z,5.40
2018-12-26T15:30:47.846Z,5.40
2018-12-26T15:33:17.058Z,5.40
2018-12-26T15:35:46.049Z,5.40
2018-12-26T15:38:15.109Z,5.30
2018-12-26T15:40:44.225Z,5.30
2018-12-26T15:43:13.301Z,5.30
2018-12-26T15:45:43.241Z,5.30
2018-12-26T15:48:12.225Z,5.30
2018-12-26T15:50:41.321Z,5.30
2018-12-26T15:53:10.339Z,5.30
2018-12-26T15:55:39.375Z,5.30
2018-12-26T15:58:10.282Z,5.20
2018-12-26T16:00:39.207Z,5.20
2018-12-26T16:03:08.222Z,5.20
2018-12-26T16:05:37.327Z,5.20
2018-12-26T16:08:06.334Z,5.20
2018-12-26T16:10:35.416Z,5.20
2018-12-26T16:13:04.462Z,5.20
2018-12-26T16:15:33.394Z,5.30
2018-12-26T16:18:02.457Z,5.20
2018-12-26T16:20:31.412Z,5.20
2018-12-26T16:23:00.495Z,5.20
2018-12-26T16:25:29.520Z,5.20
2018-12-26T16:27:58.478Z,5.30
2018-12-26T16:30:27.454Z,5.30
2018-12-26T16:32:56.541Z,5.30
2018-12-26T16:35:25.656Z,5.30
2018-12-26T16:38:01.568Z,5.20
2018-12-26T16:40:25.423Z,5.20
2018-12-26T16:42:54.512Z,5.10
2018-12-26T16:45:23.711Z,5.00
2018-12-26T16:47:52.800Z,4.90
2018-12-26T16:50:26.887Z,4.80
2018-12-26T16:52:52.718Z,4.70
2018-12-26T16:55:21.973Z,4.70
2018-12-26T16:57:51.029Z,4.60
2018-12-26T17:00:19.895Z,4.50
2018-12-26T17:02:49.007Z,4.50
2018-12-26T17:05:17.971Z,4.40
2018-12-26T17:07:46.955Z,4.40
2018-12-26T17:10:18.681Z,4.30
2018-12-26T17:12:47.755Z,4.30
2018-12-26T17:15:16.683Z,4.20
2018-12-26T17:17:45.877Z,4.20
2018-12-26T17:20:14.849Z,4.10
2018-12-26T17:22:43.915Z,4.10
2018-12-26T17:25:14.671Z,4.00
2018-12-26T17:27:43.881Z,4.00
2018-12-26T17:30:12.777Z,4.00
2018-12-26T17:32:41.788Z,3.90
2018-12-26T17:35:10.821Z,3.90
2018-12-26T17:37:39.821Z,3.90
2018-12-26T17:40:08.745Z,3.90
2018-12-26T17:42:37.701Z,3.80
2018-12-26T17:45:07.298Z,3.80
2018-12-26T17:47:36.470Z,3.70
2018-12-26T17:50:46.441Z,3.70
2018-12-26T17:53:53.897Z,3.70
2018-12-26T17:56:43.295Z,3.60
2018-12-26T17:59:19.386Z,3.50
2018-12-26T18:02:10.500Z,3.50
2018-12-26T18:04:40.262Z,3.40
2018-12-26T18:07:09.239Z,3.40
2018-12-26T18:09:38.438Z,3.30
2018-12-26T18:12:11.909Z,3.30
2018-12-26T18:14:38.315Z,3.30
2018-12-26T18:17:07.423Z,3.20
2018-12-26T18:19:36.750Z,3.20
2018-12-26T18:22:05.904Z,3.10
2018-12-26T18:24:35.022Z,3.10
2018-12-26T18:27:04.008Z,3.10
2018-12-26T18:29:32.980Z,3.00
2018-12-26T18:32:01.947Z,3.00
2018-12-26T18:34:31.043Z,3.00
2018-12-26T18:37:00.075Z,2.90
2018-12-26T18:39:29.341Z,2.90
2018-12-26T18:41:58.384Z,2.90
2018-12-26T18:44:27.241Z,2.90
2018-12-26T18:46:56.231Z,2.90
2018-12-26T18:49:25.233Z,2.80
2018-12-26T18:51:54.178Z,2.80
2018-12-26T18:54:23.195Z,2.80
2018-12-26T18:56:52.120Z,2.80
2018-12-26T18:59:21.103Z,2.80
2018-12-26T19:01:50.477Z,2.80
2018-12-26T19:04:19.688Z,2.80
2018-12-26T19:06:48.792Z,2.80
2018-12-26T19:09:17.739Z,2.90
2018-12-26T19:11:46.784Z,2.90
2018-12-26T19:14:15.868Z,2.90
2018-12-26T19:16:44.983Z,2.80
2018-12-26T19:19:14.017Z,2.70
2018-12-26T19:21:43.116Z,2.70
2018-12-26T19:24:12.230Z,2.70
2018-12-26T19:26:41.413Z,2.60
2018-12-26T19:29:10.568Z,2.60
2018-12-26T19:31:39.906Z,2.60
2018-12-26T19:34:09.287Z,2.60
2018-12-26T19:36:38.456Z,2.50
2018-12-26T19:39:08.066Z,2.50
2018-12-26T19:41:37.064Z,2.60
2018-12-26T19:44:06.102Z,2.50
2018-12-26T19:46:35.158Z,2.60
2018-12-26T19:49:04.282Z,2.60
2018-12-26T19:51:33.461Z,2.60
2018-12-26T19:54:02.552Z,2.60
2018-12-26T19:56:31.589Z,2.70
2018-12-26T19:59:00.723Z,2.70
2018-12-26T20:01:29.703Z,2.80
2018-12-26T20:03:58.828Z,2.80
2018-12-26T20:06:27.951Z,2.80
2018-12-26T20:08:57.019Z,2.80
2018-12-26T20:11:26.101Z,2.80
2018-12-26T20:13:55.057Z,2.80
2018-12-26T20:16:24.283Z,2.80
2018-12-26T20:18:53.372Z,2.90
2018-12-26T20:21:22.527Z,2.90
2018-12-26T20:23:51.641Z,2.80
2018-12-26T20:26:20.670Z,2.80
2018-12-26T20:28:49.735Z,2.80
2018-12-26T20:31:18.777Z,2.80
2018-12-26T20:33:47.909Z,2.80
2018-12-26T20:36:16.915Z,2.90
2018-12-26T20:38:45.869Z,2.80
2018-12-26T20:41:15.209Z,2.80
2018-12-26T20:43:44.246Z,2.80
2018-12-26T20:46:13.367Z,2.90
2018-12-26T20:48:42.422Z,2.80
2018-12-26T20:51:11.518Z,2.80
2018-12-26T20:53:40.708Z,2.80
2018-12-26T20:56:09.859Z,2.80
2018-12-26T20:58:38.898Z,2.80
2018-12-26T21:01:08.008Z,2.80
2018-12-26T21:03:37.019Z,2.90
2018-12-26T21:06:06.041Z,2.80
2018-12-26T21:08:35.165Z,2.80
2018-12-26T21:11:04.237Z,2.80
2018-12-26T21:13:33.240Z,2.80
2018-12-26T21:16:02.328Z,2.80
2018-12-26T21:18:31.510Z,2.80
2018-12-26T21:21:00.587Z,2.80
2018-12-26T21:23:29.694Z,2.80
2018-12-26T21:25:58.764Z,2.80
2018-12-26T21:28:27.884Z,2.80
2018-12-26T21:30:56.976Z,2.80
2018-12-26T21:33:26.057Z,2.90
2018-12-26T21:35:54.990Z,2.80
2018-12-26T21:38:23.965Z,2.80
2018-12-26T21:40:53.029Z,2.80
2018-12-26T21:43:22.035Z,2.80
2018-12-26T21:45:51.051Z,2.80
2018-12-26T21:48:19.971Z,2.80
2018-12-26T21:50:48.947Z,2.80
2018-12-26T21:53:17.979Z,2.80
2018-12-26T21:55:47.054Z,2.80
2018-12-26T21:58:16.029Z,2.90
2018-12-26T22:00:45.065Z,2.90
2018-12-26T22:03:14.057Z,2.90
2018-12-26T22:05:43.065Z,2.80
2018-12-26T22:08:12.130Z,2.80
2018-12-26T22:10:41.133Z,2.80
2018-12-26T22:13:10.165Z,2.80
2018-12-26T22:15:39.129Z,2.80
2018-12-26T22:18:08.133Z,2.90
2018-12-26T22:20:37.271Z,2.80
2018-12-26T22:23:06.307Z,2.80
2018-12-26T22:25:35.830Z,2.80
2018-12-26T22:28:05.031Z,2.80
2018-12-26T22:30:34.192Z,2.80
2018-12-26T22:33:03.111Z,2.80
2018-12-26T22:35:32.608Z,2.90
2018-12-26T22:38:01.751Z,2.80
2018-12-26T22:40:30.676Z,2.80
2018-12-26T22:42:59.622Z,2.80
2018-12-26T22:45:28.540Z,2.80
2018-12-26T22:47:57.548Z,2.80
2018-12-26T22:50:27.475Z,2.80
2018-12-26T22:52:56.678Z,2.80
2018-12-26T22:55:25.517Z,2.80
2018-12-26T22:57:54.501Z,2.80
2018-12-26T23:00:37.272Z,2.80
2018-12-26T23:03:25.446Z,2.70
2018-12-26T23:05:54.477Z,2.80
2018-12-26T23:08:23.456Z,2.80
2018-12-26T23:10:52.417Z,2.70
2018-12-26T23:13:21.377Z,2.70
2018-12-26T23:15:50.375Z,2.70
2018-12-26T23:18:19.301Z,2.70
2018-12-26T23:20:48.311Z,2.70
2018-12-26T23:23:17.240Z,2.80
2018-12-26T23:25:46.232Z,2.70
2018-12-26T23:28:34.411Z,2.70
2018-12-26T23:31:03.399Z,2.70
2018-12-26T23:33:32.359Z,2.70
2018-12-26T23:36:01.571Z,2.70
2018-12-26T23:38:30.494Z,2.70
2018-12-26T23:40:59.498Z,2.70
2018-12-26T23:43:28.524Z,2.70
2018-12-26T23:45:57.480Z,2.70
2018-12-26T23:48:26.422Z,2.70
2018-12-26T23:50:55.416Z,2.60
2018-12-26T23:53:24.425Z,2.70
2018-12-26T23:55:53.360Z,2.70
2018-12-26T23:58:22.387Z,2.70
